Time;durP1;ratioP1;P1;durP2;ratioP2;P2;SDS_P1;SDS_P2;PMS_P1;PMS_P2;Temp;Humidity;BMP_temperature;BMP_pressure;BME280_temperature;BME280_humidity;BME280_pressure;Samples;Min_cycle;Max_cycle;Signal;HPM_P1;HPM_P2
2024/03/07 00:01:53;;;;;;;34.13;20.50;;;;;;;;;;4908977;29;20028;-86
2024/03/07 00:04:38;;;;;;;31.40;20.35;;;;;;;;;;4896044;29;20040;-86
2024/03/07 00:07:24;;;;;;;32.97;21.13;;;;;;;;;;4901139;29;20123;-85
2024/03/07 00:10:10;;;;;;;33.22;21.60;;;;;;;;;;4900887;29;20028;-85
2024/03/07 00:12:55;;;;;;;29.85;20.08;;;;;;;;;;4900066;29;20138;-85
2024/03/07 00:15:41;;;;;;;31.85;20.50;;;;;;;;;;4892177;29;20064;-85
2024/03/07 00:18:27;;;;;;;31.88;20.80;;;;;;;;;;4912614;29;20119;-85
2024/03/07 00:21:12;;;;;;;33.13;21.13;;;;;;;;;;4905813;29;20123;-85
2024/03/07 00:24:01;;;;;;;31.65;21.63;;;;;;;;;;4894373;29;20028;-86
2024/03/07 00:26:46;;;;;;;35.38;20.88;;;;;;;;;;4897583;29;20055;-86
2024/03/07 00:29:31;;;;;;;29.48;19.63;;;;;;;;;;4902531;29;20095;-86
2024/03/07 00:32:18;;;;;;;34.97;21.95;;;;;;;;;;4890420;29;20020;-86
2024/03/07 00:35:03;;;;;;;34.30;22.05;;;;;;;;;;4898654;29;20566;-85
2024/03/07 00:37:49;;;;;;;32.67;20.45;;;;;;;;;;4899271;29;20040;-84
2024/03/07 00:40:34;;;;;;;31.30;20.98;;;;;;;;;;4895817;29;20036;-84
2024/03/07 00:43:20;;;;;;;34.58;21.45;;;;;;;;;;4901996;29;20036;-85
2024/03/07 00:46:06;;;;;;;31.98;21.45;;;;;;;;;;4901883;29;20142;-85
2024/03/07 00:48:51;;;;;;;33.10;21.10;;;;;;;;;;4913231;29;20036;-85
2024/03/07 00:51:36;;;;;;;35.25;21.25;;;;;;;;;;4901669;29;20357;-85
2024/03/07 00:54:22;;;;;;;30.90;20.60;;;;;;;;;;4901051;29;20039;-85
2024/03/07 00:57:08;;;;;;;34.78;22.05;;;;;;;;;;4900130;29;20412;-85
2024/03/07 00:59:53;;;;;;;33.63;21.63;;;;;;;;;;4896957;29;20072;-86
2024/03/07 01:02:43;;;;;;;33.40;21.58;;;;;;;;;;4895151;29;20028;-86
2024/03/07 01:05:28;;;;;;;31.15;19.50;;;;;;;;;;4904654;29;20028;-87
2024/03/07 01:08:13;;;;;;;32.55;20.65;;;;;;;;;;4895656;29;20036;-86
2024/03/07 01:10:58;;;;;;;30.80;20.98;;;;;;;;;;4898779;29;20082;-86
2024/03/07 01:13:44;;;;;;;29.83;19.92;;;;;;;;;;4899455;29;20039;-86
2024/03/07 01:16:29;;;;;;;34.83;23.45;;;;;;;;;;4878762;29;20040;-85
2024/03/07 01:19:15;;;;;;;35.42;21.33;;;;;;;;;;4894319;29;20031;-86
2024/03/07 01:22:00;;;;;;;34.50;22.92;;;;;;;;;;4894793;29;20059;-85
2024/03/07 01:24:45;;;;;;;36.53;22.90;;;;;;;;;;4903959;29;20031;-86
2024/03/07 01:27:30;;;;;;;30.83;20.80;;;;;;;;;;4900710;29;20024;-86
2024/03/07 01:30:15;;;;;;;32.08;20.33;;;;;;;;;;4893865;29;20440;-85
2024/03/07 01:33:01;;;;;;;33.13;21.52;;;;;;;;;;4896248;29;20039;-86
2024/03/07 01:35:46;;;;;;;33.80;21.17;;;;;;;;;;4895855;29;20024;-86
2024/03/07 01:38:31;;;;;;;37.15;22.45;;;;;;;;;;4899194;29;20084;-85
2024/03/07 01:41:17;;;;;;;35.78;23.42;;;;;;;;;;4893316;29;20463;-85
2024/03/07 01:44:02;;;;;;;41.38;24.27;;;;;;;;;;4898014;29;20119;-85
2024/03/07 01:46:50;;;;;;;34.53;22.83;;;;;;;;;;4874944;29;20042;-85
2024/03/07 01:49:36;;;;;;;35.30;23.27;;;;;;;;;;4895714;29;20032;-85
2024/03/07 01:52:22;;;;;;;33.13;22.73;;;;;;;;;;4896851;29;20027;-85
2024/03/07 01:55:07;;;;;;;38.88;22.85;;;;;;;;;;4895992;29;20024;-84
2024/03/07 01:57:55;;;;;;;36.40;24.27;;;;;;;;;;4895144;29;20036;-85
2024/03/07 02:00:40;;;;;;;34.72;22.50;;;;;;;;;;4881899;29;20050;-84
2024/03/07 02:03:25;;;;;;;39.35;23.85;;;;;;;;;;4894770;29;20024;-83
2024/03/07 02:06:11;;;;;;;38.17;23.25;;;;;;;;;;4894772;29;20035;-85
2024/03/07 02:08:57;;;;;;;39.40;23.55;;;;;;;;;;4895986;29;20037;-84
2024/03/07 02:11:42;;;;;;;34.85;22.95;;;;;;;;;;4908981;29;20110;-85
2024/03/07 02:14:27;;;;;;;33.50;22.35;;;;;;;;;;4908647;29;20039;-85
2024/03/07 02:17:13;;;;;;;35.85;24.10;;;;;;;;;;4908398;29;20119;-84
2024/03/07 02:19:58;;;;;;;38.95;24.60;;;;;;;;;;4895793;29;20119;-84
2024/03/07 02:22:43;;;;;;;37.75;25.13;;;;;;;;;;4894299;29;20361;-84
2024/03/07 02:25:30;;;;;;;35.97;23.25;;;;;;;;;;4895316;29;20036;-86
2024/03/07 02:28:21;;;;;;;33.88;23.15;;;;;;;;;;4895570;29;20048;-85
2024/03/07 02:31:06;;;;;;;35.22;23.85;;;;;;;;;;4894796;29;20122;-85
2024/03/07 02:33:52;;;;;;;43.55;24.73;;;;;;;;;;4895639;29;20036;-85
2024/03/07 02:36:38;;;;;;;38.88;24.98;;;;;;;;;;4908417;29;20351;-84
2024/03/07 02:39:24;;;;;;;36.40;25.42;;;;;;;;;;4894613;29;20420;-85
2024/03/07 02:42:09;;;;;;;37.08;23.08;;;;;;;;;;4888835;29;20539;-84
2024/03/07 02:44:55;;;;;;;36.33;24.38;;;;;;;;;;4895873;29;20115;-84
2024/03/07 02:47:41;;;;;;;34.85;23.25;;;;;;;;;;4894735;29;20221;-85
2024/03/07 02:50:26;;;;;;;35.50;23.73;;;;;;;;;;4895773;29;20391;-84
2024/03/07 02:53:12;;;;;;;38.88;22.92;;;;;;;;;;4895556;29;20038;-84
2024/03/07 02:55:57;;;;;;;34.72;21.58;;;;;;;;;;4908232;29;20140;-84
2024/03/07 02:58:42;;;;;;;39.58;24.35;;;;;;;;;;4892984;29;20024;-82
2024/03/07 03:01:27;;;;;;;39.15;24.42;;;;;;;;;;4896900;29;20123;-84
2024/03/07 03:04:13;;;;;;;38.38;23.90;;;;;;;;;;4894891;29;20024;-84
2024/03/07 03:06:58;;;;;;;39.85;24.02;;;;;;;;;;4897643;29;20115;-83
2024/03/07 03:09:43;;;;;;;37.30;24.02;;;;;;;;;;4901826;29;20108;-84
2024/03/07 03:12:28;;;;;;;36.63;24.52;;;;;;;;;;4898063;29;20027;-84
2024/03/07 03:15:14;;;;;;;39.78;26.35;;;;;;;;;;4897792;29;20099;-84
2024/03/07 03:18:00;;;;;;;39.55;24.17;;;;;;;;;;4913059;29;20032;-84
2024/03/07 03:20:48;;;;;;;44.05;25.45;;;;;;;;;;4910992;29;20111;-84
2024/03/07 03:23:34;;;;;;;38.15;25.17;;;;;;;;;;4897621;29;20471;-84
2024/03/07 03:26:19;;;;;;;37.40;26.02;;;;;;;;;;4896835;29;20028;-85
2024/03/07 03:29:06;;;;;;;46.33;28.10;;;;;;;;;;4910479;29;20044;-84
2024/03/07 03:31:51;;;;;;;46.05;26.42;;;;;;;;;;4911072;29;20051;-84
2024/03/07 03:34:36;;;;;;;45.25;25.98;;;;;;;;;;4898156;29;20422;-85
2024/03/07 03:37:22;;;;;;;45.00;27.38;;;;;;;;;;4898076;29;20395;-83
2024/03/07 03:40:09;;;;;;;37.75;25.63;;;;;;;;;;4898385;29;20036;-83
2024/03/07 03:42:54;;;;;;;40.85;25.13;;;;;;;;;;4898271;29;20067;-83
2024/03/07 03:45:39;;;;;;;40.92;25.58;;;;;;;;;;4913866;29;20027;-86
2024/03/07 03:48:25;;;;;;;43.75;27.35;;;;;;;;;;4901836;29;20494;-84
2024/03/07 03:51:12;;;;;;;47.30;27.25;;;;;;;;;;4900933;29;20418;-84
2024/03/07 03:54:00;;;;;;;47.53;27.70;;;;;;;;;;4900796;29;20036;-83
2024/03/07 03:56:45;;;;;;;46.33;26.58;;;;;;;;;;4900664;29;20036;-84
2024/03/07 03:59:31;;;;;;;44.97;25.85;;;;;;;;;;4900660;29;20031;-84
2024/03/07 04:02:19;;;;;;;44.17;26.83;;;;;;;;;;4897049;29;20036;-84
2024/03/07 04:05:05;;;;;;;40.05;26.08;;;;;;;;;;4902888;29;20066;-83
2024/03/07 04:07:50;;;;;;;43.10;25.42;;;;;;;;;;4900047;29;20040;-83
2024/03/07 04:10:35;;;;;;;40.15;24.55;;;;;;;;;;4910367;29;20028;-84
2024/03/07 04:13:22;;;;;;;40.70;25.85;;;;;;;;;;4891681;29;20044;-84
2024/03/07 04:16:08;;;;;;;37.20;24.30;;;;;;;;;;4897694;29;20122;-84
2024/03/07 04:18:53;;;;;;;39.67;25.70;;;;;;;;;;4896799;29;20513;-84
2024/03/07 04:21:39;;;;;;;38.38;26.15;;;;;;;;;;4896663;29;20589;-84
2024/03/07 04:24:25;;;;;;;42.67;26.30;;;;;;;;;;4896975;29;20036;-84
2024/03/07 04:27:10;;;;;;;42.13;26.13;;;;;;;;;;4897041;29;20020;-84
2024/03/07 04:29:56;;;;;;;40.42;25.27;;;;;;;;;;4884058;29;20091;-83
2024/03/07 04:32:42;;;;;;;43.47;26.73;;;;;;;;;;4897706;29;20035;-83
2024/03/07 04:35:27;;;;;;;42.03;25.77;;;;;;;;;;4896650;29;20030;-83
2024/03/07 04:38:14;;;;;;;41.50;26.50;;;;;;;;;;4896647;29;20024;-83
2024/03/07 04:41:00;;;;;;;40.75;25.15;;;;;;;;;;4895551;29;20054;-83
2024/03/07 04:43:45;;;;;;;41.35;25.80;;;;;;;;;;4896817;29;20158;-83
2024/03/07 04:46:30;;;;;;;39.00;25.30;;;;;;;;;;4897721;29;20031;-85
2024/03/07 04:49:16;;;;;;;41.25;25.52;;;;;;;;;;4897676;29;20024;-85
2024/03/07 04:52:02;;;;;;;41.75;26.48;;;;;;;;;;4883951;29;20020;-85
2024/03/07 04:54:47;;;;;;;43.85;27.05;;;;;;;;;;4896992;29;20176;-84
2024/03/07 04:57:32;;;;;;;38.92;25.25;;;;;;;;;;4896835;29;20360;-84
2024/03/07 05:00:19;;;;;;;38.55;24.98;;;;;;;;;;4896830;29;20032;-85
2024/03/07 05:03:04;;;;;;;36.78;24.55;;;;;;;;;;4896794;29;20035;-84
2024/03/07 05:05:49;;;;;;;36.88;23.02;;;;;;;;;;4896519;29;20031;-85
2024/03/07 05:08:35;;;;;;;40.95;24.45;;;;;;;;;;4894419;29;20051;-84
2024/03/07 05:11:21;;;;;;;38.15;24.05;;;;;;;;;;4896074;29;20067;-84
2024/03/07 05:14:06;;;;;;;43.10;25.83;;;;;;;;;;4896029;29;20036;-85
2024/03/07 05:17:08;;;;;;;39.97;24.88;;;;;;;;;;4897240;29;20040;-85
2024/03/07 05:19:53;;;;;;;39.13;26.52;;;;;;;;;;4896874;29;20039;-85
2024/03/07 05:22:50;;;;;;;36.58;23.60;;;;;;;;;;4896919;29;20028;-84
2024/03/07 05:25:35;;;;;;;42.20;23.48;;;;;;;;;;4890803;29;20144;-84
2024/03/07 05:28:20;;;;;;;38.10;25.00;;;;;;;;;;4890090;29;20080;-84
2024/03/07 05:31:05;;;;;;;40.67;24.83;;;;;;;;;;4902077;29;20044;-83
2024/03/07 05:33:51;;;;;;;42.40;27.10;;;;;;;;;;4919024;29;20275;-83
2024/03/07 05:36:43;;;;;;;41.50;26.10;;;;;;;;;;4934351;29;20036;-84
2024/03/07 05:39:29;;;;;;;46.53;27.90;;;;;;;;;;4916875;29;20024;-83
2024/03/07 05:42:14;;;;;;;46.17;27.70;;;;;;;;;;4917384;29;20027;-84
2024/03/07 05:44:59;;;;;;;39.08;23.92;;;;;;;;;;4900276;29;20032;-83
2024/03/07 05:47:45;;;;;;;41.92;25.42;;;;;;;;;;4893159;29;20395;-83
2024/03/07 05:50:30;;;;;;;38.25;22.95;;;;;;;;;;4890820;29;20031;-86
2024/03/07 05:53:15;;;;;;;42.83;24.02;;;;;;;;;;4893251;29;20100;-83
2024/03/07 05:56:01;;;;;;;38.25;24.70;;;;;;;;;;4903292;29;20484;-87
2024/03/07 05:58:46;;;;;;;43.97;26.95;;;;;;;;;;4884346;29;20020;-86
2024/03/07 06:01:32;;;;;;;42.58;26.10;;;;;;;;;;4878350;29;20037;-85
2024/03/07 06:04:18;;;;;;;42.90;25.27;;;;;;;;;;4905405;29;20059;-83
2024/03/07 06:07:03;;;;;;;45.25;25.08;;;;;;;;;;4905281;29;20041;-85
2024/03/07 06:09:50;;;;;;;37.13;22.92;;;;;;;;;;4912994;29;20071;-86
2024/03/07 06:12:35;;;;;;;41.08;24.95;;;;;;;;;;4888983;29;20036;-82
2024/03/07 06:15:20;;;;;;;41.30;26.67;;;;;;;;;;4906910;29;20032;-83
2024/03/07 06:18:08;;;;;;;39.75;23.83;;;;;;;;;;4874705;29;20064;-83
2024/03/07 06:20:53;;;;;;;46.47;26.15;;;;;;;;;;4884735;29;20127;-84
2024/03/07 06:23:38;;;;;;;43.97;27.08;;;;;;;;;;4903034;29;20029;-84
2024/03/07 06:26:36;;;;;;;43.58;27.27;;;;;;;;;;4874773;29;20032;-84
2024/03/07 06:29:22;;;;;;;44.47;28.58;;;;;;;;;;4906642;29;20067;-84
2024/03/07 06:32:07;;;;;;;44.10;27.48;;;;;;;;;;4880933;29;20541;-84
2024/03/07 06:34:53;;;;;;;42.53;25.65;;;;;;;;;;4887088;29;20104;-84
2024/03/07 06:37:39;;;;;;;42.60;25.75;;;;;;;;;;4892213;29;20034;-84
2024/03/07 06:40:25;;;;;;;47.03;27.15;;;;;;;;;;4896189;29;20047;-83
2024/03/07 06:43:10;;;;;;;44.70;27.23;;;;;;;;;;4890573;29;20407;-83
2024/03/07 06:45:56;;;;;;;41.42;25.23;;;;;;;;;;4893529;29;20033;-84
2024/03/07 06:48:44;;;;;;;47.92;26.73;;;;;;;;;;4890717;29;20788;-85
2024/03/07 06:51:29;;;;;;;45.35;28.77;;;;;;;;;;4880537;29;20029;-85
2024/03/07 06:54:14;;;;;;;44.30;27.65;;;;;;;;;;4889598;29;20043;-84
2024/03/07 06:56:59;;;;;;;45.28;27.95;;;;;;;;;;4892933;29;20025;-83
2024/03/07 06:59:45;;;;;;;46.88;28.92;;;;;;;;;;4891611;29;20539;-83
2024/03/07 07:02:30;;;;;;;41.13;25.83;;;;;;;;;;4890521;29;20128;-84
2024/03/07 07:05:17;;;;;;;38.88;24.52;;;;;;;;;;4901355;29;20239;-83
2024/03/07 07:08:04;;;;;;;44.25;26.50;;;;;;;;;;4885186;29;20448;-85
2024/03/07 07:10:49;;;;;;;37.22;23.05;;;;;;;;;;4892929;29;20020;-83
2024/03/07 07:13:36;;;;;;;41.28;25.02;;;;;;;;;;4904378;29;20107;-82
2024/03/07 07:16:21;;;;;;;40.45;24.13;;;;;;;;;;4881449;29;20056;-85
2024/03/07 07:19:07;;;;;;;38.85;22.88;;;;;;;;;;4894499;29;20400;-86
2024/03/07 07:21:53;;;;;;;39.22;23.77;;;;;;;;;;4889806;29;20092;-85
2024/03/07 07:24:39;;;;;;;42.88;24.77;;;;;;;;;;4910993;29;20028;-86
2024/03/07 07:27:25;;;;;;;38.75;24.02;;;;;;;;;;4902440;29;20032;-85
2024/03/07 07:30:10;;;;;;;38.28;24.55;;;;;;;;;;4906150;29;20032;-85
2024/03/07 07:32:56;;;;;;;35.05;23.42;;;;;;;;;;4892915;29;20033;-84
2024/03/07 07:35:41;;;;;;;38.17;23.52;;;;;;;;;;4899495;29;20035;-85
2024/03/07 07:38:26;;;;;;;40.38;24.77;;;;;;;;;;4911302;29;20028;-86
2024/03/07 07:41:12;;;;;;;34.05;22.05;;;;;;;;;;4899348;29;20547;-86
2024/03/07 07:43:57;;;;;;;33.50;22.15;;;;;;;;;;4915530;29;20036;-85
2024/03/07 07:46:43;;;;;;;37.88;24.08;;;;;;;;;;4909261;29;20048;-85
2024/03/07 07:49:31;;;;;;;38.45;23.58;;;;;;;;;;4908590;29;20751;-84
2024/03/07 07:52:16;;;;;;;36.88;22.15;;;;;;;;;;4885236;29;20040;-83
2024/03/07 07:55:02;;;;;;;36.10;22.50;;;;;;;;;;4901165;29;20484;-84
2024/03/07 07:57:52;;;;;;;36.35;22.75;;;;;;;;;;4899539;29;20530;-84
2024/03/07 08:00:37;;;;;;;35.97;21.45;;;;;;;;;;4897926;29;20035;-84
2024/03/07 08:03:23;;;;;;;35.90;23.60;;;;;;;;;;4897453;29;20444;-84
2024/03/07 08:06:08;;;;;;;36.67;22.63;;;;;;;;;;4890222;29;20489;-84
2024/03/07 08:08:54;;;;;;;34.60;22.10;;;;;;;;;;4892152;29;20096;-84
2024/03/07 08:11:41;;;;;;;33.05;22.38;;;;;;;;;;4897955;29;20392;-85
2024/03/07 08:14:29;;;;;;;32.00;22.08;;;;;;;;;;4905876;29;20040;-83
2024/03/07 08:17:14;;;;;;;35.33;23.23;;;;;;;;;;4899670;29;20125;-83
2024/03/07 08:19:59;;;;;;;33.63;23.17;;;;;;;;;;4899330;29;20176;-87
2024/03/07 08:22:45;;;;;;;36.45;22.48;;;;;;;;;;4895920;29;20039;-88
2024/03/07 08:25:30;;;;;;;34.78;23.63;;;;;;;;;;4899769;29;20042;-88
2024/03/07 08:28:15;;;;;;;33.40;24.02;;;;;;;;;;4911681;29;20044;-84
2024/03/07 08:31:00;;;;;;;33.08;22.92;;;;;;;;;;4891990;29;20095;-85
2024/03/07 08:33:46;;;;;;;33.35;21.13;;;;;;;;;;4889261;29;20062;-84
2024/03/07 08:36:31;;;;;;;35.33;21.58;;;;;;;;;;4896916;29;20524;-85
2024/03/07 08:39:16;;;;;;;29.83;20.75;;;;;;;;;;4898044;29;20031;-85
2024/03/07 08:42:01;;;;;;;31.50;21.55;;;;;;;;;;4913533;29;20020;-84
2024/03/07 08:44:47;;;;;;;31.27;20.75;;;;;;;;;;4898983;29;20035;-84
2024/03/07 08:47:35;;;;;;;32.63;21.08;;;;;;;;;;4893445;29;20529;-84
2024/03/07 08:50:20;;;;;;;34.22;22.63;;;;;;;;;;4883790;29;20056;-86
2024/03/07 08:53:05;;;;;;;36.03;21.30;;;;;;;;;;4894407;29;20032;-84
2024/03/07 08:55:51;;;;;;;37.50;21.58;;;;;;;;;;4901793;29;20035;-86
2024/03/07 08:58:37;;;;;;;31.23;21.27;;;;;;;;;;4910034;29;20024;-86
2024/03/07 09:01:22;;;;;;;32.25;20.63;;;;;;;;;;4903515;29;20032;-85
2024/03/07 09:04:11;;;;;;;36.47;22.60;;;;;;;;;;4882954;29;20403;-85
2024/03/07 09:06:56;;;;;;;32.55;20.60;;;;;;;;;;4897450;29;20063;-86
2024/03/07 09:09:45;;;;;;;31.13;20.35;;;;;;;;;;4896256;29;20036;-87
2024/03/07 09:12:30;;;;;;;35.70;21.50;;;;;;;;;;4897826;29;20396;-85
2024/03/07 09:15:21;;;;;;;32.30;21.92;;;;;;;;;;4908712;29;20084;-86
2024/03/07 09:18:08;;;;;;;30.42;20.42;;;;;;;;;;4894600;29;20031;-85
2024/03/07 09:20:53;;;;;;;34.63;20.95;;;;;;;;;;4896881;29;20549;-86
2024/03/07 09:23:39;;;;;;;30.15;19.83;;;;;;;;;;4898875;29;20613;-86
2024/03/07 09:26:25;;;;;;;30.52;18.95;;;;;;;;;;4904474;29;20032;-87
2024/03/07 09:29:10;;;;;;;30.08;21.20;;;;;;;;;;4894623;29;20107;-85
2024/03/07 09:31:57;;;;;;;30.98;21.52;;;;;;;;;;4890405;29;20103;-86
2024/03/07 09:34:42;;;;;;;37.53;21.70;;;;;;;;;;4898730;29;20440;-86
2024/03/07 09:37:27;;;;;;;32.90;20.90;;;;;;;;;;4902645;29;20483;-86
2024/03/07 09:40:12;;;;;;;31.85;21.90;;;;;;;;;;4903404;29;20171;-85
2024/03/07 09:42:59;;;;;;;38.63;22.30;;;;;;;;;;4908889;29;20028;-86
2024/03/07 09:45:47;;;;;;;33.25;21.83;;;;;;;;;;4908186;29;20066;-86
2024/03/07 09:48:32;;;;;;;36.17;23.17;;;;;;;;;;4901735;29;20044;-85
2024/03/07 09:51:19;;;;;;;31.23;20.27;;;;;;;;;;4905881;29;20031;-85
2024/03/07 09:54:04;;;;;;;36.10;22.27;;;;;;;;;;4894084;29;20480;-87
2024/03/07 09:56:51;;;;;;;35.58;22.08;;;;;;;;;;4891773;29;20083;-84
2024/03/07 09:59:39;;;;;;;36.00;20.95;;;;;;;;;;4891371;29;20087;-88
2024/03/07 10:02:25;;;;;;;34.97;21.88;;;;;;;;;;4908783;29;20028;-85
2024/03/07 10:05:13;;;;;;;34.08;22.55;;;;;;;;;;4896005;29;20043;-86
2024/03/07 10:08:00;;;;;;;31.05;20.80;;;;;;;;;;4889307;29;20020;-85
2024/03/07 10:10:47;;;;;;;35.28;20.73;;;;;;;;;;4900187;29;20345;-85
2024/03/07 10:13:35;;;;;;;35.17;20.70;;;;;;;;;;4898171;29;20434;-86
2024/03/07 10:16:20;;;;;;;32.10;20.52;;;;;;;;;;4891298;29;20803;-85
2024/03/07 10:19:05;;;;;;;34.15;21.92;;;;;;;;;;4913027;29;20467;-84
2024/03/07 10:21:58;;;;;;;34.03;19.98;;;;;;;;;;4890705;29;20024;-86
2024/03/07 10:24:53;;;;;;;36.03;20.17;;;;;;;;;;4897740;29;20064;-86
2024/03/07 10:27:38;;;;;;;33.97;19.80;;;;;;;;;;4890404;29;20040;-86
2024/03/07 10:30:25;;;;;;;27.90;19.33;;;;;;;;;;4898039;29;20701;-85
2024/03/07 10:33:11;;;;;;;32.10;19.77;;;;;;;;;;4885384;29;20052;-84
2024/03/07 10:35:56;;;;;;;32.20;19.90;;;;;;;;;;4896250;29;20036;-87
2024/03/07 10:38:41;;;;;;;29.48;20.27;;;;;;;;;;4894429;29;20036;-85
2024/03/07 10:41:30;;;;;;;31.58;20.52;;;;;;;;;;4899795;29;20352;-84
2024/03/07 10:44:21;;;;;;;33.20;20.23;;;;;;;;;;4899574;29;20525;-84
2024/03/07 10:47:07;;;;;;;33.10;20.10;;;;;;;;;;4891564;29;20483;-87
2024/03/07 10:49:55;;;;;;;28.02;19.10;;;;;;;;;;4893528;29;20032;-85
2024/03/07 10:52:45;;;;;;;35.90;20.15;;;;;;;;;;4891812;29;20020;-86
2024/03/07 10:55:49;;;;;;;31.17;19.67;;;;;;;;;;4915229;29;20039;-87
2024/03/07 10:58:46;;;;;;;30.30;19.70;;;;;;;;;;4899060;29;20110;-87
2024/03/07 11:01:33;;;;;;;30.55;20.77;;;;;;;;;;4901718;29;20369;-85
2024/03/07 11:04:18;;;;;;;30.85;21.10;;;;;;;;;;4912872;29;20024;-85
2024/03/07 11:07:04;;;;;;;31.30;18.90;;;;;;;;;;4896173;29;20031;-85
2024/03/07 11:09:51;;;;;;;36.80;22.88;;;;;;;;;;4924377;29;20035;-84
2024/03/07 11:12:39;;;;;;;34.30;21.83;;;;;;;;;;4912952;29;20491;-82
2024/03/07 11:15:27;;;;;;;34.00;21.83;;;;;;;;;;4900574;29;20042;-85
2024/03/07 11:18:12;;;;;;;31.85;20.15;;;;;;;;;;4897040;29;20067;-87
2024/03/07 11:20:58;;;;;;;35.75;21.00;;;;;;;;;;4933534;29;20028;-85
2024/03/07 11:23:44;;;;;;;38.90;22.40;;;;;;;;;;4887051;29;20406;-86
2024/03/07 11:26:30;;;;;;;33.08;19.90;;;;;;;;;;4908283;29;20058;-86
2024/03/07 11:29:34;;;;;;;38.65;22.80;;;;;;;;;;4910098;29;20047;-86
2024/03/07 11:32:22;;;;;;;37.17;23.23;;;;;;;;;;4904255;29;20031;-86
2024/03/07 11:35:14;;;;;;;32.60;21.05;;;;;;;;;;4903226;29;20031;-86
2024/03/07 11:37:59;;;;;;;32.15;22.13;;;;;;;;;;4901791;29;20076;-86
2024/03/07 11:40:44;;;;;;;33.25;21.67;;;;;;;;;;4909152;29;20030;-86
2024/03/07 11:43:30;;;;;;;37.25;22.42;;;;;;;;;;4915209;29;20550;-86
2024/03/07 11:46:16;;;;;;;32.72;21.77;;;;;;;;;;4916566;29;20051;-86
2024/03/07 11:49:01;;;;;;;35.08;22.80;;;;;;;;;;4904200;29;20084;-86
2024/03/07 11:51:47;;;;;;;34.95;21.80;;;;;;;;;;4891897;29;20060;-86
2024/03/07 11:54:33;;;;;;;34.85;23.33;;;;;;;;;;4894572;29;20094;-86
2024/03/07 11:57:32;;;;;;;33.40;21.92;;;;;;;;;;4915430;29;20032;-86
2024/03/07 12:00:18;;;;;;;;;;;;;;;;;;4907918;29;20043;-86
2024/03/07 12:03:06;;;;;;;35.35;21.50;;;;;;;;;;4901399;29;19918;-86
2024/03/07 12:05:52;;;;;;;40.63;23.70;;;;;;;;;;4901078;29;20035;-83
2024/03/07 12:08:37;;;;;;;33.08;22.45;;;;;;;;;;4884371;29;20384;-84
2024/03/07 12:11:25;;;;;;;38.20;22.15;;;;;;;;;;4913284;29;20099;-87
2024/03/07 12:14:10;;;;;;;37.70;23.08;;;;;;;;;;4906464;29;20039;-88
2024/03/07 12:16:56;;;;;;;36.30;22.70;;;;;;;;;;4901179;29;20035;-86
2024/03/07 12:19:42;;;;;;;35.45;21.52;;;;;;;;;;4895967;29;20383;-82
2024/03/07 12:22:29;;;;;;;33.40;22.50;;;;;;;;;;4907638;29;20032;-84
2024/03/07 12:25:21;;;;;;;35.58;21.70;;;;;;;;;;4899166;29;20028;-83
2024/03/07 12:28:17;;;;;;;31.60;21.02;;;;;;;;;;4900832;29;20044;-84
2024/03/07 12:31:04;;;;;;;37.03;22.23;;;;;;;;;;4895441;29;20039;-84
2024/03/07 12:33:51;;;;;;;34.47;22.17;;;;;;;;;;4883206;29;20029;-85
2024/03/07 12:36:45;;;;;;;40.78;23.77;;;;;;;;;;4884038;29;20172;-85
2024/03/07 12:39:46;;;;;;;37.47;22.90;;;;;;;;;;4885803;29;20025;-84
2024/03/07 12:42:31;;;;;;;35.50;22.55;;;;;;;;;;4906096;29;20479;-85
2024/03/07 12:45:19;;;;;;;36.95;22.70;;;;;;;;;;4889977;29;20100;-87
2024/03/07 12:48:06;;;;;;;39.70;23.85;;;;;;;;;;4914816;29;20031;-88
2024/03/07 12:50:55;;;;;;;34.00;21.45;;;;;;;;;;4900001;29;20017;-87
2024/03/07 12:53:42;;;;;;;33.17;22.43;;;;;;;;;;4875445;29;20510;-87
2024/03/07 12:56:27;;;;;;;40.55;23.70;;;;;;;;;;4890913;29;20037;-85
2024/03/07 12:59:13;;;;;;;37.78;24.58;;;;;;;;;;4908988;29;20079;-88
2024/03/07 13:01:58;;;;;;;38.47;24.00;;;;;;;;;;4881816;29;20092;-85
2024/03/07 13:04:45;;;;;;;37.13;24.02;;;;;;;;;;4897368;29;20036;-85
2024/03/07 13:07:30;;;;;;;35.55;23.48;;;;;;;;;;4895954;29;20392;-87
2024/03/07 13:10:18;;;;;;;35.80;24.17;;;;;;;;;;4881435;29;20033;-85
2024/03/07 13:13:04;;;;;;;34.58;25.33;;;;;;;;;;4895800;29;20025;-87
2024/03/07 13:15:51;;;;;;;38.67;23.30;;;;;;;;;;4889794;29;20099;-87
2024/03/07 13:18:37;;;;;;;34.45;23.63;;;;;;;;;;4905408;29;20115;-86
2024/03/07 13:21:22;;;;;;;36.38;24.25;;;;;;;;;;4899082;29;20028;-87
2024/03/07 13:24:08;;;;;;;34.53;23.17;;;;;;;;;;4895380;29;20057;-86
2024/03/07 13:26:53;;;;;;;36.08;23.65;;;;;;;;;;4893719;29;20032;-88
2024/03/07 13:29:39;;;;;;;35.17;25.13;;;;;;;;;;4893409;29;20147;-84
2024/03/07 13:32:24;;;;;;;37.15;23.65;;;;;;;;;;4888702;29;20021;-85
2024/03/07 13:35:11;;;;;;;39.03;25.83;;;;;;;;;;4893880;29;20044;-83
2024/03/07 13:37:56;;;;;;;33.25;21.98;;;;;;;;;;4900435;29;20043;-85
2024/03/07 13:40:42;;;;;;;37.30;22.67;;;;;;;;;;4905033;29;20127;-85
2024/03/07 13:43:27;;;;;;;35.22;24.70;;;;;;;;;;4897168;29;20061;-85
2024/03/07 13:46:13;;;;;;;31.85;22.70;;;;;;;;;;4916587;29;20024;-86
2024/03/07 13:49:06;;;;;;;35.65;23.00;;;;;;;;;;4901224;29;20043;-85
2024/03/07 13:51:59;;;;;;;40.97;23.60;;;;;;;;;;4927009;29;20064;-87
2024/03/07 13:54:45;;;;;;;34.58;23.10;;;;;;;;;;4922596;29;20013;-85
2024/03/07 13:57:31;;;;;;;35.15;20.95;;;;;;;;;;4935688;29;20040;-87
2024/03/07 14:00:29;;;;;;;49.83;34.25;;;;;;;;;;4884266;29;20029;-86
2024/03/07 14:03:39;;;;;;;31.60;22.42;;;;;;;;;;4888949;29;20056;-86
2024/03/07 14:06:24;;;;;;;;;;;;;;;;;;4894347;29;20046;-86
2024/03/07 14:09:12;;;;;;;33.97;21.83;;;;;;;;;;4887061;29;19911;-86
2024/03/07 14:11:57;;;;;;;33.10;21.92;;;;;;;;;;4892252;29;20028;-86
2024/03/07 14:14:49;;;;;;;37.13;23.13;;;;;;;;;;4897771;29;20047;-84
2024/03/07 14:17:53;;;;;;;30.42;21.63;;;;;;;;;;4889613;29;20036;-85
2024/03/07 14:20:51;;;;;;;29.35;20.48;;;;;;;;;;4884009;29;20048;-85
2024/03/07 14:23:56;;;;;;;34.20;22.23;;;;;;;;;;4891463;29;20036;-83
2024/03/07 14:27:00;;;;;;;32.83;22.45;;;;;;;;;;4894491;29;20195;-85
2024/03/07 14:29:56;;;;;;;36.78;23.20;;;;;;;;;;4908158;29;20157;-84
2024/03/07 14:32:43;;;;;;;35.67;23.45;;;;;;;;;;4881517;29;20073;-85
2024/03/07 14:35:35;;;;;;;33.10;23.00;;;;;;;;;;4876043;29;20029;-84
2024/03/07 14:38:25;;;;;;;35.38;24.25;;;;;;;;;;4896357;29;20432;-83
2024/03/07 14:41:12;;;;;;;34.13;23.98;;;;;;;;;;4887533;29;20040;-86
2024/03/07 14:43:58;;;;;;;33.70;23.88;;;;;;;;;;4891013;29;20437;-86
2024/03/07 14:46:43;;;;;;;37.40;24.42;;;;;;;;;;4889980;29;20040;-84
2024/03/07 14:49:29;;;;;;;36.80;24.50;;;;;;;;;;4881056;29;20035;-86
2024/03/07 14:52:15;;;;;;;33.95;23.83;;;;;;;;;;4886651;29;20028;-84
2024/03/07 14:55:00;;;;;;;39.65;23.58;;;;;;;;;;4889134;29;20029;-85
2024/03/07 14:57:45;;;;;;;36.80;25.00;;;;;;;;;;4893058;29;20028;-84
2024/03/07 15:00:33;;;;;;;34.35;23.98;;;;;;;;;;4875564;29;20438;-87
2024/03/07 15:03:18;;;;;;;39.50;24.05;;;;;;;;;;4905892;29;20036;-85
2024/03/07 15:06:04;;;;;;;44.08;25.40;;;;;;;;;;4898274;29;20131;-84
2024/03/07 15:08:49;;;;;;;35.50;24.05;;;;;;;;;;4879171;29;20023;-84
2024/03/07 15:11:35;;;;;;;33.60;22.35;;;;;;;;;;4894081;29;20029;-84
2024/03/07 15:14:20;;;;;;;33.25;21.88;;;;;;;;;;4891846;29;20033;-84
2024/03/07 15:17:06;;;;;;;32.28;22.00;;;;;;;;;;4902462;29;20025;-83
2024/03/07 15:19:51;;;;;;;34.60;22.13;;;;;;;;;;4891594;29;20067;-85
2024/03/07 15:22:37;;;;;;;30.55;21.23;;;;;;;;;;4899204;29;20032;-86
2024/03/07 15:25:23;;;;;;;32.88;21.83;;;;;;;;;;4894901;29;20033;-87
2024/03/07 15:28:08;;;;;;;35.70;21.75;;;;;;;;;;4898717;29;20056;-85
2024/03/07 15:30:54;;;;;;;36.45;23.00;;;;;;;;;;4888307;29;20028;-84
2024/03/07 15:33:40;;;;;;;38.22;22.42;;;;;;;;;;4903834;29;20088;-81
2024/03/07 15:36:27;;;;;;;43.97;24.48;;;;;;;;;;4889165;29;20080;-84
2024/03/07 15:39:26;;;;;;;36.58;22.20;;;;;;;;;;4905337;29;20031;-84
2024/03/07 15:42:14;;;;;;;37.60;23.00;;;;;;;;;;4898848;29;20059;-84
2024/03/07 15:44:59;;;;;;;35.83;21.63;;;;;;;;;;4896396;29;20181;-84
2024/03/07 15:47:45;;;;;;;31.90;21.63;;;;;;;;;;4908000;29;20043;-84
2024/03/07 15:50:31;;;;;;;30.80;20.15;;;;;;;;;;4899790;29;20489;-85
2024/03/07 15:53:17;;;;;;;34.80;22.10;;;;;;;;;;4904949;29;20029;-85
2024/03/07 15:56:03;;;;;;;34.40;21.48;;;;;;;;;;4887788;29;20033;-85
2024/03/07 15:58:48;;;;;;;31.90;21.40;;;;;;;;;;4912328;29;20480;-84
2024/03/07 16:01:33;;;;;;;30.75;21.35;;;;;;;;;;4905164;29;20033;-84
2024/03/07 16:04:18;;;;;;;33.92;21.08;;;;;;;;;;4897449;29;20024;-85
2024/03/07 16:07:04;;;;;;;31.83;20.52;;;;;;;;;;4897347;29;20032;-84
2024/03/07 16:09:49;;;;;;;28.88;20.08;;;;;;;;;;4881501;29;20032;-85
2024/03/07 16:12:35;;;;;;;31.63;20.08;;;;;;;;;;4892788;29;20468;-87